sensor_id;sensor_type;location;lat;lon;timestamp;P1;durP1;ratioP1;P2;durP2;ratioP2
74487;SDS011;63019;51.080;13.642;2023-02-15T00:00:53;38.47;;;14.25;;
74487;SDS011;63019;51.080;13.642;2023-02-15T00:02:00;37.42;;;14.20;;
74487;SDS011;63019;51.080;13.642;2023-02-15T00:03:03;39.47;;;14.13;;
74487;SDS011;63019;51.080;13.642;2023-02-15T00:04:06;36.03;;;13.60;;
74487;SDS011;63019;51.080;13.642;2023-02-15T00:05:09;33.72;;;13.40;;
74487;SDS011;63019;51.080;13.642;2023-02-15T00:06:11;38.35;;;13.95;;
74487;SDS011;63019;51.080;13.642;2023-02-15T00:07:14;44.87;;;15.27;;
74487;SDS011;63019;51.080;13.642;2023-02-15T00:08:18;41.90;;;14.23;;
74487;SDS011;63019;51.080;13.642;2023-02-15T00:09:20;41.92;;;13.98;;
74487;SDS011;63019;51.080;13.642;2023-02-15T00:10:23;36.90;;;13.98;;
74487;SDS011;63019;51.080;13.642;2023-02-15T00:11:26;38.25;;;13.80;;
74487;SDS011;63019;51.080;13.642;2023-02-15T00:12:47;38.92;;;14.30;;
74487;SDS011;63019;51.080;13.642;2023-02-15T00:13:50;36.28;;;13.70;;
74487;SDS011;63019;51.080;13.642;2023-02-15T00:14:53;36.60;;;13.88;;
74487;SDS011;63019;51.080;13.642;2023-02-15T00:16:00;38.83;;;13.02;;
74487;SDS011;63019;51.080;13.642;2023-02-15T00:17:04;40.00;;;13.43;;
74487;SDS011;63019;51.080;13.642;2023-02-15T00:18:07;40.67;;;14.77;;
74487;SDS011;63019;51.080;13.642;2023-02-15T00:19:12;42.63;;;14.15;;
74487;SDS011;63019;51.080;13.642;2023-02-15T00:20:16;36.25;;;12.88;;
74487;SDS011;63019;51.080;13.642;2023-02-15T00:21:19;37.95;;;13.00;;
74487;SDS011;63019;51.080;13.642;2023-02-15T00:22:22;40.67;;;14.52;;
74487;SDS011;63019;51.080;13.642;2023-02-15T00:23:25;40.85;;;14.18;;
74487;SDS011;63019;51.080;13.642;2023-02-15T00:24:28;43.60;;;14.10;;
74487;SDS011;63019;51.080;13.642;2023-02-15T00:25:31;38.15;;;12.93;;
74487;SDS011;63019;51.080;13.642;2023-02-15T00:26:33;34.58;;;13.43;;
74487;SDS011;63019;51.080;13.642;2023-02-15T00:27:36;33.03;;;12.85;;
74487;SDS011;63019;51.080;13.642;2023-02-15T00:28:38;41.17;;;14.07;;
74487;SDS011;63019;51.080;13.642;2023-02-15T00:29:41;38.72;;;14.07;;
74487;SDS011;63019;51.080;13.642;2023-02-15T00:30:44;38.20;;;13.52;;
74487;SDS011;63019;51.080;13.642;2023-02-15T00:31:47;34.80;;;12.65;;
74487;SDS011;63019;51.080;13.642;2023-02-15T00:32:50;33.42;;;13.32;;
74487;SDS011;63019;51.080;13.642;2023-02-15T00:33:52;36.67;;;13.75;;
74487;SDS011;63019;51.080;13.642;2023-02-15T00:34:55;40.92;;;13.38;;
74487;SDS011;63019;51.080;13.642;2023-02-15T00:35:59;38.08;;;12.80;;
74487;SDS011;63019;51.080;13.642;2023-02-15T00:37:03;35.53;;;12.65;;
74487;SDS011;63019;51.080;13.642;2023-02-15T00:38:07;39.35;;;14.18;;
74487;SDS011;63019;51.080;13.642;2023-02-15T00:39:09;41.57;;;13.70;;
74487;SDS011;63019;51.080;13.642;2023-02-15T00:40:12;40.03;;;13.57;;
74487;SDS011;63019;51.080;13.642;2023-02-15T00:41:15;40.40;;;14.20;;
74487;SDS011;63019;51.080;13.642;2023-02-15T00:42:18;40.20;;;14.15;;
74487;SDS011;63019;51.080;13.642;2023-02-15T00:43:20;40.58;;;14.02;;
74487;SDS011;63019;51.080;13.642;2023-02-15T00:44:24;35.35;;;12.88;;
74487;SDS011;63019;51.080;13.642;2023-02-15T00:45:27;34.38;;;13.00;;
74487;SDS011;63019;51.080;13.642;2023-02-15T00:46:29;36.55;;;12.98;;
74487;SDS011;63019;51.080;13.642;2023-02-15T00:47:32;38.83;;;13.65;;
74487;SDS011;63019;51.080;13.642;2023-02-15T00:48:35;39.58;;;13.15;;
74487;SDS011;63019;51.080;13.642;2023-02-15T00:49:37;37.37;;;13.33;;
74487;SDS011;63019;51.080;13.642;2023-02-15T00:50:40;35.75;;;12.80;;
74487;SDS011;63019;51.080;13.642;2023-02-15T00:51:43;34.65;;;12.82;;
74487;SDS011;63019;51.080;13.642;2023-02-15T00:52:45;37.13;;;12.95;;
74487;SDS011;63019;51.080;13.642;2023-02-15T00:53:47;35.40;;;13.57;;
74487;SDS011;63019;51.080;13.642;2023-02-15T00:54:50;35.92;;;12.80;;
74487;SDS011;63019;51.080;13.642;2023-02-15T00:55:54;34.50;;;12.73;;
74487;SDS011;63019;51.080;13.642;2023-02-15T00:56:56;36.63;;;13.15;;
74487;SDS011;63019;51.080;13.642;2023-02-15T00:57:59;37.55;;;13.80;;
74487;SDS011;63019;51.080;13.642;2023-02-15T00:59:01;34.40;;;13.15;;
74487;SDS011;63019;51.080;13.642;2023-02-15T01:00:04;38.80;;;13.57;;
74487;SDS011;63019;51.080;13.642;2023-02-15T01:01:12;40.15;;;13.50;;
74487;SDS011;63019;51.080;13.642;2023-02-15T01:02:16;36.60;;;12.75;;
74487;SDS011;63019;51.080;13.642;2023-02-15T01:03:19;40.38;;;12.90;;
74487;SDS011;63019;51.080;13.642;2023-02-15T01:04:22;37.15;;;12.57;;
74487;SDS011;63019;51.080;13.642;2023-02-15T01:05:25;38.78;;;13.85;;
74487;SDS011;63019;51.080;13.642;2023-02-15T01:06:27;33.50;;;12.40;;
74487;SDS011;63019;51.080;13.642;2023-02-15T01:07:30;31.83;;;12.40;;
74487;SDS011;63019;51.080;13.642;2023-02-15T01:08:32;34.38;;;12.23;;
74487;SDS011;63019;51.080;13.642;2023-02-15T01:09:35;36.00;;;12.77;;
74487;SDS011;63019;51.080;13.642;2023-02-15T01:10:37;34.10;;;12.93;;
74487;SDS011;63019;51.080;13.642;2023-02-15T01:11:40;33.08;;;12.73;;
74487;SDS011;63019;51.080;13.642;2023-02-15T01:12:43;30.83;;;11.57;;
74487;SDS011;63019;51.080;13.642;2023-02-15T01:13:48;41.70;;;13.95;;
74487;SDS011;63019;51.080;13.642;2023-02-15T01:14:51;36.92;;;13.73;;
74487;SDS011;63019;51.080;13.642;2023-02-15T01:15:54;38.33;;;12.23;;
74487;SDS011;63019;51.080;13.642;2023-02-15T01:16:57;41.33;;;12.80;;
74487;SDS011;63019;51.080;13.642;2023-02-15T01:18:00;32.95;;;12.00;;
74487;SDS011;63019;51.080;13.642;2023-02-15T01:19:02;37.55;;;12.65;;
74487;SDS011;63019;51.080;13.642;2023-02-15T01:20:05;34.92;;;12.57;;
74487;SDS011;63019;51.080;13.642;2023-02-15T01:21:12;36.10;;;12.97;;
74487;SDS011;63019;51.080;13.642;2023-02-15T01:22:17;31.65;;;12.20;;
74487;SDS011;63019;51.080;13.642;2023-02-15T01:23:21;34.08;;;11.98;;
74487;SDS011;63019;51.080;13.642;2023-02-15T01:24:23;34.08;;;11.93;;
74487;SDS011;63019;51.080;13.642;2023-02-15T01:25:26;32.22;;;11.93;;
74487;SDS011;63019;51.080;13.642;2023-02-15T01:26:30;39.30;;;12.93;;
74487;SDS011;63019;51.080;13.642;2023-02-15T01:27:32;33.65;;;11.88;;
74487;SDS011;63019;51.080;13.642;2023-02-15T01:28:35;31.48;;;12.15;;
74487;SDS011;63019;51.080;13.642;2023-02-15T01:29:38;38.47;;;12.65;;
74487;SDS011;63019;51.080;13.642;2023-02-15T01:30:40;28.48;;;12.00;;
74487;SDS011;63019;51.080;13.642;2023-02-15T01:31:43;41.20;;;13.00;;
74487;SDS011;63019;51.080;13.642;2023-02-15T01:32:45;35.35;;;11.70;;
74487;SDS011;63019;51.080;13.642;2023-02-15T01:33:48;37.88;;;12.35;;
74487;SDS011;63019;51.080;13.642;2023-02-15T01:34:51;35.83;;;12.68;;
74487;SDS011;63019;51.080;13.642;2023-02-15T01:35:56;34.45;;;12.15;;
74487;SDS011;63019;51.080;13.642;2023-02-15T01:37:00;36.85;;;11.93;;
74487;SDS011;63019;51.080;13.642;2023-02-15T01:38:02;33.63;;;12.10;;
74487;SDS011;63019;51.080;13.642;2023-02-15T01:39:05;34.92;;;12.40;;
74487;SDS011;63019;51.080;13.642;2023-02-15T01:40:13;36.75;;;12.88;;
74487;SDS011;63019;51.080;13.642;2023-02-15T01:41:17;36.80;;;12.65;;
74487;SDS011;63019;51.080;13.642;2023-02-15T01:42:28;29.50;;;10.70;;
74487;SDS011;63019;51.080;13.642;2023-02-15T01:43:41;36.38;;;12.10;;
74487;SDS011;63019;51.080;13.642;2023-02-15T01:44:46;40.17;;;12.40;;
74487;SDS011;63019;51.080;13.642;2023-02-15T01:45:51;32.30;;;11.75;;
74487;SDS011;63019;51.080;13.642;2023-02-15T01:47:07;35.65;;;12.05;;
74487;SDS011;63019;51.080;13.642;2023-02-15T01:49:22;36.38;;;11.40;;
74487;SDS011;63019;51.080;13.642;2023-02-15T01:50:47;36.33;;;11.13;;
74487;SDS011;63019;51.080;13.642;2023-02-15T01:51:54;34.17;;;12.13;;
74487;SDS011;63019;51.080;13.642;2023-02-15T01:52:59;39.25;;;12.50;;
74487;SDS011;63019;51.080;13.642;2023-02-15T01:54:09;30.17;;;11.30;;
74487;SDS011;63019;51.080;13.642;2023-02-15T01:55:20;38.25;;;12.73;;
74487;SDS011;63019;51.080;13.642;2023-02-15T01:56:27;38.03;;;11.95;;
74487;SDS011;63019;51.080;13.642;2023-02-15T01:57:32;33.83;;;11.80;;
74487;SDS011;63019;51.080;13.642;2023-02-15T01:58:35;35.08;;;12.20;;
74487;SDS011;63019;51.080;13.642;2023-02-15T01:59:39;34.97;;;12.88;;
74487;SDS011;63019;51.080;13.642;2023-02-15T02:00:43;30.00;;;11.80;;
74487;SDS011;63019;51.080;13.642;2023-02-15T02:01:47;37.78;;;13.23;;
74487;SDS011;63019;51.080;13.642;2023-02-15T02:06:04;34.27;;;11.27;;
74487;SDS011;63019;51.080;13.642;2023-02-15T02:07:07;38.30;;;11.77;;
74487;SDS011;63019;51.080;13.642;2023-02-15T02:08:11;39.28;;;12.55;;
74487;SDS011;63019;51.080;13.642;2023-02-15T02:09:13;36.70;;;13.07;;
74487;SDS011;63019;51.080;13.642;2023-02-15T02:10:18;37.97;;;12.75;;
74487;SDS011;63019;51.080;13.642;2023-02-15T02:11:24;33.92;;;12.18;;
74487;SDS011;63019;51.080;13.642;2023-02-15T02:12:27;36.97;;;11.63;;
74487;SDS011;63019;51.080;13.642;2023-02-15T02:13:30;36.88;;;12.25;;
74487;SDS011;63019;51.080;13.642;2023-02-15T02:14:32;33.42;;;12.65;;
74487;SDS011;63019;51.080;13.642;2023-02-15T02:15:44;40.47;;;12.15;;
74487;SDS011;63019;51.080;13.642;2023-02-15T02:27:12;33.92;;;10.85;;
74487;SDS011;63019;51.080;13.642;2023-02-15T02:35:27;36.58;;;11.48;;
74487;SDS011;63019;51.080;13.642;2023-02-15T02:36:31;30.67;;;11.40;;
74487;SDS011;63019;51.080;13.642;2023-02-15T02:39:19;31.77;;;9.98;;
74487;SDS011;63019;51.080;13.642;2023-02-15T02:43:31;33.45;;;11.05;;
74487;SDS011;63019;51.080;13.642;2023-02-15T02:44:53;31.92;;;10.85;;
74487;SDS011;63019;51.080;13.642;2023-02-15T02:46:13;31.17;;;10.82;;
74487;SDS011;63019;51.080;13.642;2023-02-15T02:47:23;28.10;;;9.93;;
74487;SDS011;63019;51.080;13.642;2023-02-15T02:48:30;29.95;;;11.27;;
74487;SDS011;63019;51.080;13.642;2023-02-15T02:49:36;34.08;;;11.93;;
74487;SDS011;63019;51.080;13.642;2023-02-15T02:50:40;32.03;;;10.82;;
74487;SDS011;63019;51.080;13.642;2023-02-15T02:51:44;32.78;;;10.80;;
74487;SDS011;63019;51.080;13.642;2023-02-15T02:53:08;29.58;;;10.43;;
74487;SDS011;63019;51.080;13.642;2023-02-15T02:54:12;35.37;;;10.90;;
74487;SDS011;63019;51.080;13.642;2023-02-15T02:55:16;28.98;;;9.57;;
74487;SDS011;63019;51.080;13.642;2023-02-15T02:57:36;29.95;;;10.88;;
74487;SDS011;63019;51.080;13.642;2023-02-15T02:58:46;31.95;;;9.93;;
74487;SDS011;63019;51.080;13.642;2023-02-15T03:00:02;32.55;;;10.55;;
74487;SDS011;63019;51.080;13.642;2023-02-15T03:01:09;31.15;;;11.25;;
74487;SDS011;63019;51.080;13.642;2023-02-15T03:02:21;27.90;;;11.68;;
74487;SDS011;63019;51.080;13.642;2023-02-15T03:03:34;28.30;;;9.98;;
74487;SDS011;63019;51.080;13.642;2023-02-15T03:04:41;26.67;;;9.77;;
74487;SDS011;63019;51.080;13.642;2023-02-15T03:05:47;31.93;;;10.23;;
74487;SDS011;63019;51.080;13.642;2023-02-15T03:06:56;32.60;;;10.00;;
74487;SDS011;63019;51.080;13.642;2023-02-15T03:08:01;32.25;;;9.93;;
74487;SDS011;63019;51.080;13.642;2023-02-15T03:09:09;30.75;;;10.70;;
74487;SDS011;63019;51.080;13.642;2023-02-15T03:10:17;29.88;;;10.45;;
74487;SDS011;63019;51.080;13.642;2023-02-15T03:11:22;28.40;;;9.60;;
74487;SDS011;63019;51.080;13.642;2023-02-15T03:12:42;32.45;;;10.45;;
74487;SDS011;63019;51.080;13.642;2023-02-15T03:13:44;29.02;;;10.05;;
74487;SDS011;63019;51.080;13.642;2023-02-15T03:14:50;30.33;;;9.57;;
74487;SDS011;63019;51.080;13.642;2023-02-15T03:15:55;29.50;;;9.85;;
74487;SDS011;63019;51.080;13.642;2023-02-15T03:17:17;30.80;;;9.77;;
74487;SDS011;63019;51.080;13.642;2023-02-15T03:18:23;26.88;;;9.95;;
74487;SDS011;63019;51.080;13.642;2023-02-15T03:19:32;30.80;;;11.07;;
74487;SDS011;63019;51.080;13.642;2023-02-15T03:20:37;28.05;;;9.63;;
74487;SDS011;63019;51.080;13.642;2023-02-15T03:23:06;28.15;;;9.55;;
74487;SDS011;63019;51.080;13.642;2023-02-15T03:24:14;33.85;;;10.15;;
74487;SDS011;63019;51.080;13.642;2023-02-15T03:25:25;26.73;;;9.95;;
74487;SDS011;63019;51.080;13.642;2023-02-15T03:26:32;28.13;;;9.45;;
74487;SDS011;63019;51.080;13.642;2023-02-15T03:27:40;27.58;;;9.88;;
74487;SDS011;63019;51.080;13.642;2023-02-15T03:28:47;27.80;;;8.60;;
74487;SDS011;63019;51.080;13.642;2023-02-15T03:29:54;26.95;;;9.65;;
74487;SDS011;63019;51.080;13.642;2023-02-15T03:31:00;27.33;;;9.70;;
74487;SDS011;63019;51.080;13.642;2023-02-15T03:32:06;29.10;;;9.70;;
74487;SDS011;63019;51.080;13.642;2023-02-15T03:33:12;29.38;;;10.05;;
74487;SDS011;63019;51.080;13.642;2023-02-15T03:34:16;26.58;;;10.27;;
74487;SDS011;63019;51.080;13.642;2023-02-15T03:35:20;29.33;;;9.82;;
74487;SDS011;63019;51.080;13.642;2023-02-15T03:38:01;25.40;;;9.68;;
74487;SDS011;63019;51.080;13.642;2023-02-15T03:40:19;27.80;;;9.37;;
74487;SDS011;63019;51.080;13.642;2023-02-15T03:42:08;23.80;;;8.82;;
74487;SDS011;63019;51.080;13.642;2023-02-15T03:46:08;27.80;;;9.40;;
74487;SDS011;63019;51.080;13.642;2023-02-15T03:47:36;29.90;;;9.02;;
74487;SDS011;63019;51.080;13.642;2023-02-15T03:49:03;24.58;;;8.88;;
74487;SDS011;63019;51.080;13.642;2023-02-15T03:50:11;31.70;;;9.30;;
74487;SDS011;63019;51.080;13.642;2023-02-15T03:51:43;28.42;;;8.68;;
74487;SDS011;63019;51.080;13.642;2023-02-15T03:52:48;32.55;;;9.80;;
74487;SDS011;63019;51.080;13.642;2023-02-15T03:53:49;26.93;;;9.43;;
74487;SDS011;63019;51.080;13.642;2023-02-15T03:54:53;31.52;;;8.95;;
74487;SDS011;63019;51.080;13.642;2023-02-15T03:55:55;32.38;;;10.02;;
74487;SDS011;63019;51.080;13.642;2023-02-15T03:56:57;27.33;;;9.15;;
74487;SDS011;63019;51.080;13.642;2023-02-15T03:58:18;25.60;;;9.15;;
74487;SDS011;63019;51.080;13.642;2023-02-15T03:59:39;24.00;;;8.68;;
74487;SDS011;63019;51.080;13.642;2023-02-15T04:01:02;30.55;;;9.35;;
74487;SDS011;63019;51.080;13.642;2023-02-15T04:02:24;26.98;;;8.15;;
74487;SDS011;63019;51.080;13.642;2023-02-15T04:03:39;28.17;;;9.57;;
74487;SDS011;63019;51.080;13.642;2023-02-15T04:04:45;24.90;;;8.68;;
74487;SDS011;63019;51.080;13.642;2023-02-15T04:05:48;30.23;;;9.57;;
74487;SDS011;63019;51.080;13.642;2023-02-15T04:06:49;26.17;;;8.90;;
74487;SDS011;63019;51.080;13.642;2023-02-15T04:07:51;28.70;;;9.70;;
74487;SDS011;63019;51.080;13.642;2023-02-15T04:08:53;27.90;;;9.23;;
74487;SDS011;63019;51.080;13.642;2023-02-15T04:10:13;23.73;;;8.75;;
74487;SDS011;63019;51.080;13.642;2023-02-15T04:11:34;32.17;;;9.38;;
74487;SDS011;63019;51.080;13.642;2023-02-15T04:12:35;26.83;;;9.38;;
74487;SDS011;63019;51.080;13.642;2023-02-15T04:13:37;29.08;;;9.60;;
74487;SDS011;63019;51.080;13.642;2023-02-15T04:14:39;22.75;;;8.95;;
74487;SDS011;63019;51.080;13.642;2023-02-15T04:16:00;29.40;;;9.25;;
74487;SDS011;63019;51.080;13.642;2023-02-15T04:17:07;28.40;;;9.03;;
74487;SDS011;63019;51.080;13.642;2023-02-15T04:18:09;25.52;;;9.35;;
74487;SDS011;63019;51.080;13.642;2023-02-15T04:19:11;29.83;;;9.50;;
74487;SDS011;63019;51.080;13.642;2023-02-15T04:20:31;26.17;;;8.98;;
74487;SDS011;63019;51.080;13.642;2023-02-15T04:21:51;32.70;;;10.55;;
74487;SDS011;63019;51.080;13.642;2023-02-15T04:23:12;31.58;;;9.02;;
74487;SDS011;63019;51.080;13.642;2023-02-15T04:24:32;27.35;;;9.95;;
74487;SDS011;63019;51.080;13.642;2023-02-15T04:25:53;23.05;;;8.50;;
74487;SDS011;63019;51.080;13.642;2023-02-15T04:26:55;27.40;;;9.10;;
74487;SDS011;63019;51.080;13.642;2023-02-15T04:27:57;30.17;;;9.90;;
74487;SDS011;63019;51.080;13.642;2023-02-15T04:28:59;27.63;;;9.40;;
74487;SDS011;63019;51.080;13.642;2023-02-15T04:30:01;33.42;;;10.18;;
74487;SDS011;63019;51.080;13.642;2023-02-15T04:31:02;21.70;;;8.45;;
74487;SDS011;63019;51.080;13.642;2023-02-15T04:32:04;29.00;;;9.55;;
74487;SDS011;63019;51.080;13.642;2023-02-15T04:33:06;32.47;;;9.10;;
74487;SDS011;63019;51.080;13.642;2023-02-15T04:34:08;29.63;;;9.30;;
74487;SDS011;63019;51.080;13.642;2023-02-15T04:35:11;29.95;;;9.93;;
74487;SDS011;63019;51.080;13.642;2023-02-15T04:36:14;26.65;;;10.18;;
74487;SDS011;63019;51.080;13.642;2023-02-15T04:37:16;31.05;;;9.15;;
74487;SDS011;63019;51.080;13.642;2023-02-15T04:38:18;27.02;;;9.73;;
74487;SDS011;63019;51.080;13.642;2023-02-15T04:39:19;34.73;;;9.70;;
74487;SDS011;63019;51.080;13.642;2023-02-15T04:40:21;30.15;;;9.63;;
74487;SDS011;63019;51.080;13.642;2023-02-15T04:41:23;25.33;;;9.02;;
74487;SDS011;63019;51.080;13.642;2023-02-15T04:42:25;24.23;;;8.60;;
74487;SDS011;63019;51.080;13.642;2023-02-15T04:43:28;27.60;;;9.05;;
74487;SDS011;63019;51.080;13.642;2023-02-15T04:44:30;27.23;;;10.10;;
74487;SDS011;63019;51.080;13.642;2023-02-15T04:45:31;24.58;;;8.32;;
74487;SDS011;63019;51.080;13.642;2023-02-15T04:46:33;30.38;;;9.90;;
74487;SDS011;63019;51.080;13.642;2023-02-15T04:47:35;30.10;;;9.40;;
74487;SDS011;63019;51.080;13.642;2023-02-15T04:48:37;26.35;;;8.95;;
74487;SDS011;63019;51.080;13.642;2023-02-15T04:49:39;28.67;;;9.27;;
74487;SDS011;63019;51.080;13.642;2023-02-15T04:50:40;22.40;;;8.25;;
74487;SDS011;63019;51.080;13.642;2023-02-15T04:51:42;26.85;;;8.90;;
74487;SDS011;63019;51.080;13.642;2023-02-15T04:52:44;28.40;;;9.15;;
74487;SDS011;63019;51.080;13.642;2023-02-15T04:53:46;22.00;;;8.93;;
74487;SDS011;63019;51.080;13.642;2023-02-15T04:54:48;25.45;;;8.98;;
74487;SDS011;63019;51.080;13.642;2023-02-15T04:55:49;23.55;;;8.75;;
74487;SDS011;63019;51.080;13.642;2023-02-15T04:56:52;29.63;;;9.35;;
74487;SDS011;63019;51.080;13.642;2023-02-15T04:57:53;28.63;;;8.50;;
74487;SDS011;63019;51.080;13.642;2023-02-15T04:58:55;24.25;;;9.40;;
74487;SDS011;63019;51.080;13.642;2023-02-15T04:59:57;25.77;;;9.30;;
74487;SDS011;63019;51.080;13.642;2023-02-15T05:01:00;32.28;;;10.32;;
74487;SDS011;63019;51.080;13.642;2023-02-15T05:02:02;24.40;;;9.05;;
74487;SDS011;63019;51.080;13.642;2023-02-15T05:03:04;29.70;;;9.77;;
74487;SDS011;63019;51.080;13.642;2023-02-15T05:04:06;28.52;;;9.77;;
74487;SDS011;63019;51.080;13.642;2023-02-15T05:05:09;22.08;;;8.90;;
74487;SDS011;63019;51.080;13.642;2023-02-15T05:06:14;22.23;;;7.90;;
74487;SDS011;63019;51.080;13.642;2023-02-15T05:07:15;27.10;;;9.35;;
74487;SDS011;63019;51.080;13.642;2023-02-15T05:08:17;24.60;;;9.63;;
74487;SDS011;63019;51.080;13.642;2023-02-15T05:09:19;24.83;;;8.38;;
74487;SDS011;63019;51.080;13.642;2023-02-15T05:10:21;25.90;;;8.97;;
74487;SDS011;63019;51.080;13.642;2023-02-15T05:11:22;28.83;;;9.55;;
74487;SDS011;63019;51.080;13.642;2023-02-15T05:12:24;31.67;;;9.45;;
74487;SDS011;63019;51.080;13.642;2023-02-15T05:13:26;24.73;;;9.10;;
74487;SDS011;63019;51.080;13.642;2023-02-15T05:14:28;24.13;;;9.50;;
74487;SDS011;63019;51.080;13.642;2023-02-15T05:15:30;26.25;;;9.88;;
74487;SDS011;63019;51.080;13.642;2023-02-15T05:16:31;25.63;;;9.30;;
74487;SDS011;63019;51.080;13.642;2023-02-15T05:17:33;25.15;;;8.57;;
74487;SDS011;63019;51.080;13.642;2023-02-15T05:18:35;26.25;;;8.57;;
74487;SDS011;63019;51.080;13.642;2023-02-15T05:19:37;23.35;;;8.50;;
74487;SDS011;63019;51.080;13.642;2023-02-15T05:20:39;26.53;;;8.87;;
74487;SDS011;63019;51.080;13.642;2023-02-15T05:21:40;27.65;;;9.25;;
74487;SDS011;63019;51.080;13.642;2023-02-15T05:22:42;25.65;;;8.88;;
74487;SDS011;63019;51.080;13.642;2023-02-15T05:23:44;27.83;;;8.93;;
74487;SDS011;63019;51.080;13.642;2023-02-15T05:24:46;20.35;;;7.90;;
74487;SDS011;63019;51.080;13.642;2023-02-15T05:26:15;23.58;;;8.25;;
74487;SDS011;63019;51.080;13.642;2023-02-15T05:27:38;19.80;;;7.88;;
74487;SDS011;63019;51.080;13.642;2023-02-15T05:28:58;22.55;;;8.18;;
74487;SDS011;63019;51.080;13.642;2023-02-15T05:30:00;31.13;;;9.10;;
74487;SDS011;63019;51.080;13.642;2023-02-15T05:31:12;26.50;;;8.88;;
74487;SDS011;63019;51.080;13.642;2023-02-15T05:32:19;18.07;;;7.13;;
74487;SDS011;63019;51.080;13.642;2023-02-15T05:33:21;20.88;;;7.88;;
74487;SDS011;63019;51.080;13.642;2023-02-15T05:34:23;22.77;;;8.05;;
74487;SDS011;63019;51.080;13.642;2023-02-15T05:35:24;27.77;;;8.90;;
74487;SDS011;63019;51.080;13.642;2023-02-15T05:36:26;28.40;;;8.80;;
74487;SDS011;63019;51.080;13.642;2023-02-15T05:37:29;24.88;;;8.65;;
74487;SDS011;63019;51.080;13.642;2023-02-15T05:38:31;28.70;;;9.02;;
74487;SDS011;63019;51.080;13.642;2023-02-15T05:39:33;18.95;;;7.30;;
74487;SDS011;63019;51.080;13.642;2023-02-15T05:40:35;22.38;;;8.75;;
74487;SDS011;63019;51.080;13.642;2023-02-15T05:41:37;24.30;;;7.93;;
74487;SDS011;63019;51.080;13.642;2023-02-15T05:42:39;24.40;;;8.70;;
74487;SDS011;63019;51.080;13.642;2023-02-15T05:43:40;19.83;;;7.50;;
74487;SDS011;63019;51.080;13.642;2023-02-15T05:44:42;25.98;;;8.63;;
74487;SDS011;63019;51.080;13.642;2023-02-15T05:45:45;26.75;;;8.90;;
74487;SDS011;63019;51.080;13.642;2023-02-15T05:46:56;23.38;;;7.82;;
74487;SDS011;63019;51.080;13.642;2023-02-15T05:47:58;22.25;;;8.40;;
74487;SDS011;63019;51.080;13.642;2023-02-15T05:48:59;21.67;;;7.85;;
74487;SDS011;63019;51.080;13.642;2023-02-15T05:50:01;23.90;;;8.18;;
74487;SDS011;63019;51.080;13.642;2023-02-15T05:51:10;22.95;;;8.02;;
74487;SDS011;63019;51.080;13.642;2023-02-15T05:52:17;24.63;;;8.60;;
74487;SDS011;63019;51.080;13.642;2023-02-15T05:53:18;24.70;;;8.23;;
74487;SDS011;63019;51.080;13.642;2023-02-15T05:54:20;24.65;;;8.43;;
74487;SDS011;63019;51.080;13.642;2023-02-15T05:55:22;21.75;;;8.55;;
74487;SDS011;63019;51.080;13.642;2023-02-15T05:56:24;23.48;;;8.05;;
74487;SDS011;63019;51.080;13.642;2023-02-15T05:57:26;22.25;;;8.13;;
74487;SDS011;63019;51.080;13.642;2023-02-15T05:58:29;21.23;;;6.93;;
74487;SDS011;63019;51.080;13.642;2023-02-15T05:59:32;23.83;;;7.78;;
74487;SDS011;63019;51.080;13.642;2023-02-15T06:00:34;24.30;;;7.97;;
74487;SDS011;63019;51.080;13.642;2023-02-15T06:01:38;21.42;;;8.73;;
74487;SDS011;63019;51.080;13.642;2023-02-15T06:02:40;20.50;;;7.90;;
74487;SDS011;63019;51.080;13.642;2023-02-15T06:03:42;24.37;;;8.33;;
74487;SDS011;63019;51.080;13.642;2023-02-15T06:04:44;19.25;;;7.40;;
74487;SDS011;63019;51.080;13.642;2023-02-15T06:05:46;20.85;;;8.07;;
74487;SDS011;63019;51.080;13.642;2023-02-15T06:06:48;24.05;;;8.82;;
74487;SDS011;63019;51.080;13.642;2023-02-15T06:07:49;24.15;;;8.30;;
74487;SDS011;63019;51.080;13.642;2023-02-15T06:08:51;22.75;;;8.05;;
74487;SDS011;63019;51.080;13.642;2023-02-15T06:09:53;25.50;;;8.75;;
74487;SDS011;63019;51.080;13.642;2023-02-15T06:10:55;22.88;;;7.75;;
74487;SDS011;63019;51.080;13.642;2023-02-15T06:11:56;24.13;;;8.07;;
74487;SDS011;63019;51.080;13.642;2023-02-15T06:12:58;26.80;;;8.82;;
74487;SDS011;63019;51.080;13.642;2023-02-15T06:14:00;16.67;;;7.23;;
74487;SDS011;63019;51.080;13.642;2023-02-15T06:15:02;23.35;;;7.70;;
74487;SDS011;63019;51.080;13.642;2023-02-15T06:16:05;21.20;;;7.50;;
74487;SDS011;63019;51.080;13.642;2023-02-15T06:17:07;21.80;;;8.32;;
74487;SDS011;63019;51.080;13.642;2023-02-15T06:18:09;20.58;;;7.43;;
74487;SDS011;63019;51.080;13.642;2023-02-15T06:19:11;21.35;;;8.05;;
74487;SDS011;63019;51.080;13.642;2023-02-15T06:20:13;21.70;;;7.55;;
74487;SDS011;63019;51.080;13.642;2023-02-15T06:21:15;18.80;;;7.38;;
74487;SDS011;63019;51.080;13.642;2023-02-15T06:22:17;18.77;;;7.30;;
74487;SDS011;63019;51.080;13.642;2023-02-15T06:23:19;20.95;;;7.13;;
74487;SDS011;63019;51.080;13.642;2023-02-15T06:24:21;22.63;;;7.83;;
74487;SDS011;63019;51.080;13.642;2023-02-15T06:25:23;20.60;;;7.35;;
74487;SDS011;63019;51.080;13.642;2023-02-15T06:26:25;20.50;;;7.78;;
74487;SDS011;63019;51.080;13.642;2023-02-15T06:27:27;22.20;;;7.60;;
74487;SDS011;63019;51.080;13.642;2023-02-15T06:28:29;23.30;;;7.25;;
74487;SDS011;63019;51.080;13.642;2023-02-15T06:29:31;19.88;;;7.28;;
74487;SDS011;63019;51.080;13.642;2023-02-15T06:30:33;22.90;;;7.35;;
74487;SDS011;63019;51.080;13.642;2023-02-15T06:31:34;21.08;;;7.57;;
74487;SDS011;63019;51.080;13.642;2023-02-15T06:32:36;24.33;;;7.95;;
74487;SDS011;63019;51.080;13.642;2023-02-15T06:33:38;22.42;;;7.18;;
74487;SDS011;63019;51.080;13.642;2023-02-15T06:34:40;21.47;;;6.90;;
74487;SDS011;63019;51.080;13.642;2023-02-15T06:35:42;20.95;;;7.43;;
74487;SDS011;63019;51.080;13.642;2023-02-15T06:36:44;20.70;;;6.68;;
74487;SDS011;63019;51.080;13.642;2023-02-15T06:37:46;19.02;;;7.43;;
74487;SDS011;63019;51.080;13.642;2023-02-15T06:38:47;22.85;;;8.20;;
74487;SDS011;63019;51.080;13.642;2023-02-15T06:39:49;19.85;;;7.57;;
74487;SDS011;63019;51.080;13.642;2023-02-15T06:40:51;19.90;;;7.82;;
74487;SDS011;63019;51.080;13.642;2023-02-15T06:41:53;24.65;;;7.80;;
74487;SDS011;63019;51.080;13.642;2023-02-15T06:42:54;20.65;;;7.80;;
74487;SDS011;63019;51.080;13.642;2023-02-15T06:43:56;17.70;;;7.40;;
74487;SDS011;63019;51.080;13.642;2023-02-15T06:44:58;21.40;;;7.47;;
74487;SDS011;63019;51.080;13.642;2023-02-15T06:46:01;20.75;;;7.63;;
74487;SDS011;63019;51.080;13.642;2023-02-15T06:47:03;20.08;;;7.05;;
74487;SDS011;63019;51.080;13.642;2023-02-15T06:48:05;20.10;;;7.45;;
74487;SDS011;63019;51.080;13.642;2023-02-15T06:49:10;20.92;;;7.15;;
74487;SDS011;63019;51.080;13.642;2023-02-15T06:50:12;28.10;;;7.63;;
74487;SDS011;63019;51.080;13.642;2023-02-15T06:51:14;19.60;;;6.97;;
74487;SDS011;63019;51.080;13.642;2023-02-15T06:52:16;21.05;;;7.38;;
74487;SDS011;63019;51.080;13.642;2023-02-15T06:53:18;22.15;;;7.03;;